createdAt,value
2022-09-06T00:01:25.548Z,14.84
2022-09-06T00:03:52.485Z,14.84
2022-09-06T00:06:20.430Z,14.85
2022-09-06T00:08:48.503Z,14.82
2022-09-06T00:11:16.355Z,14.80
2022-09-06T00:13:43.942Z,14.80
2022-09-06T00:16:14.441Z,14.80
2022-09-06T00:18:42.146Z,14.77
2022-09-06T00:21:35.789Z,14.83
2022-09-06T00:24:03.956Z,14.73
2022-09-06T00:26:30.679Z,14.70
2022-09-06T00:28:57.927Z,14.69
2022-09-06T00:31:26.391Z,14.68
2022-09-06T00:33:53.564Z,14.63
2022-09-06T00:36:21.912Z,14.60
2022-09-06T00:38:48.860Z,14.54
2022-09-06T00:41:16.874Z,14.55
2022-09-06T00:43:44.194Z,14.50
2022-09-06T00:46:16.907Z,14.39
2022-09-06T00:48:45.602Z,14.45
2022-09-06T00:51:14.574Z,14.38
2022-09-06T00:53:41.756Z,14.33
2022-09-06T00:56:09.102Z,14.39
2022-09-06T00:58:36.937Z,14.36
2022-09-06T01:01:04.646Z,14.34
2022-09-06T01:03:31.598Z,14.26
2022-09-06T01:06:17.086Z,14.30
2022-09-06T01:08:55.867Z,14.22
2022-09-06T01:11:41.274Z,14.22
2022-09-06T01:14:26.035Z,14.20
2022-09-06T01:17:17.480Z,14.20
2022-09-06T01:19:47.342Z,14.10
2022-09-06T01:22:32.162Z,14.05
2022-09-06T01:25:19.020Z,14.11
2022-09-06T01:28:07.253Z,14.05
2022-09-06T01:30:39.605Z,14.04
2022-09-06T01:33:28.812Z,14.01
2022-09-06T01:36:03.441Z,13.86
2022-09-06T01:38:30.433Z,13.84
2022-09-06T01:40:57.276Z,13.80
2022-09-06T01:43:31.786Z,13.77
2022-09-06T01:46:08.888Z,13.78
2022-09-06T01:48:46.253Z,13.71
2022-09-06T01:51:54.084Z,13.79
2022-09-06T01:54:51.932Z,13.76
2022-09-06T01:58:02.567Z,13.65
2022-09-06T02:00:29.511Z,13.61
2022-09-06T02:02:59.303Z,13.62
2022-09-06T02:05:31.800Z,13.53
2022-09-06T02:08:11.814Z,13.47
2022-09-06T02:10:45.905Z,13.48
2022-09-06T02:13:15.267Z,13.46
2022-09-06T02:15:54.172Z,13.46
2022-09-06T02:18:57.660Z,13.56
2022-09-06T02:21:30.244Z,13.48
2022-09-06T02:24:01.960Z,13.50
2022-09-06T02:26:32.630Z,13.46
2022-09-06T02:28:59.596Z,13.47
2022-09-06T02:31:34.980Z,13.41
2022-09-06T02:34:02.150Z,13.35
2022-09-06T02:36:31.670Z,13.30
2022-09-06T02:39:02.104Z,13.36
2022-09-06T02:41:31.242Z,13.23
2022-09-06T02:43:58.302Z,13.24
2022-09-06T02:46:25.259Z,13.25
2022-09-06T02:48:52.072Z,13.29
2022-09-06T02:51:18.952Z,13.29
2022-09-06T02:53:45.725Z,13.26
2022-09-06T02:56:12.763Z,13.25
2022-09-06T02:58:40.105Z,13.15
2022-09-06T03:01:07.459Z,13.17
2022-09-06T03:03:34.325Z,13.19
2022-09-06T03:06:01.235Z,13.15
2022-09-06T03:08:33.361Z,13.08
2022-09-06T03:11:00.987Z,13.04
2022-09-06T03:13:28.446Z,12.94
2022-09-06T03:15:57.899Z,13.01
2022-09-06T03:18:26.293Z,13.05
2022-09-06T03:20:54.383Z,12.96
2022-09-06T03:23:27.052Z,13.02
2022-09-06T03:25:54.370Z,12.89
2022-09-06T03:28:22.264Z,12.81
2022-09-06T03:30:50.734Z,12.86
2022-09-06T03:33:18.327Z,12.84
2022-09-06T03:35:56.818Z,12.84
2022-09-06T03:38:28.129Z,12.81
2022-09-06T03:40:55.561Z,12.76
2022-09-06T03:43:24.622Z,12.72
2022-09-06T03:45:54.559Z,12.74
2022-09-06T03:48:23.405Z,12.71
2022-09-06T03:50:53.206Z,12.72
2022-09-06T03:53:20.997Z,12.62
2022-09-06T03:55:49.435Z,12.66
2022-09-06T03:58:18.467Z,12.65
2022-09-06T04:00:45.867Z,12.64
2022-09-06T04:03:13.233Z,12.61
2022-09-06T04:05:40.172Z,12.65
2022-09-06T04:08:06.946Z,12.58
2022-09-06T04:10:33.945Z,12.58
2022-09-06T04:13:00.899Z,12.57
2022-09-06T04:15:27.898Z,12.56
2022-09-06T04:17:54.659Z,12.52
2022-09-06T04:20:21.638Z,12.56
2022-09-06T04:22:48.460Z,12.85
2022-09-06T04:25:15.296Z,12.74
2022-09-06T04:27:42.017Z,12.66
2022-09-06T04:30:09.163Z,12.56
2022-09-06T04:32:35.954Z,12.52
2022-09-06T04:35:02.868Z,12.56
2022-09-06T04:37:29.617Z,12.52
2022-09-06T04:39:56.882Z,12.50
2022-09-06T04:42:23.577Z,12.52
2022-09-06T04:44:50.557Z,12.45
2022-09-06T04:47:19.166Z,12.52
2022-09-06T04:49:48.176Z,12.55
2022-09-06T04:52:15.116Z,12.45
2022-09-06T04:54:41.992Z,12.47
2022-09-06T04:57:08.828Z,12.49
2022-09-06T04:59:35.749Z,12.50
2022-09-06T05:02:02.458Z,12.48
2022-09-06T05:04:29.285Z,12.48
2022-09-06T05:07:05.117Z,12.57
2022-09-06T05:09:32.966Z,12.44
2022-09-06T05:12:00.598Z,12.48
2022-09-06T05:14:28.726Z,12.49
2022-09-06T05:16:55.855Z,12.63
2022-09-06T05:19:22.713Z,12.64
2022-09-06T05:21:51.214Z,12.59
2022-09-06T05:24:18.080Z,12.63
2022-09-06T05:26:44.981Z,12.67
2022-09-06T05:29:12.004Z,12.65
2022-09-06T05:31:38.927Z,12.73
2022-09-06T05:34:06.888Z,12.80
2022-09-06T05:36:33.958Z,12.74
2022-09-06T05:39:00.711Z,12.76
2022-09-06T05:41:27.830Z,12.78
2022-09-06T05:43:54.981Z,12.92
2022-09-06T05:46:21.802Z,12.91
2022-09-06T05:48:53.255Z,12.95
2022-09-06T05:51:20.255Z,12.86
2022-09-06T05:53:47.145Z,12.94
2022-09-06T05:56:14.899Z,12.99
2022-09-06T05:58:41.747Z,13.04
2022-09-06T06:01:16.782Z,13.06
2022-09-06T06:03:54.147Z,13.03
2022-09-06T06:06:22.180Z,13.18
2022-09-06T06:08:49.527Z,13.32
2022-09-06T06:11:17.188Z,13.31
2022-09-06T06:13:44.587Z,13.39
2022-09-06T06:16:13.695Z,13.50
2022-09-06T06:18:41.220Z,13.62
2022-09-06T06:21:21.105Z,13.71
2022-09-06T06:23:52.154Z,13.70
2022-09-06T06:26:19.804Z,13.60
2022-09-06T06:28:46.759Z,13.89
2022-09-06T06:31:14.333Z,13.88
2022-09-06T06:33:41.729Z,13.89
2022-09-06T06:36:23.670Z,14.13
2022-09-06T06:38:53.244Z,14.20
2022-09-06T06:41:24.013Z,14.09
2022-09-06T06:43:55.412Z,14.23
2022-09-06T06:46:24.461Z,14.45
2022-09-06T06:48:54.825Z,14.43
2022-09-06T06:51:24.580Z,14.33
2022-09-06T06:53:51.626Z,14.44
2022-09-06T06:56:20.998Z,14.38
2022-09-06T06:58:50.201Z,14.44
2022-09-06T07:01:18.280Z,14.41
2022-09-06T07:03:45.063Z,14.39
2022-09-06T07:06:12.566Z,14.36
2022-09-06T07:08:41.007Z,14.52
2022-09-06T07:11:10.322Z,14.50
2022-09-06T07:13:37.668Z,14.60
2022-09-06T07:16:13.936Z,14.59
2022-09-06T07:18:42.395Z,14.55
2022-09-06T07:26:32.138Z,14.37
2022-09-06T07:29:01.003Z,14.33
2022-09-06T07:34:17.676Z,14.56
2022-09-06T07:36:44.485Z,14.85
2022-09-06T07:39:11.313Z,15.01
2022-09-06T07:41:38.123Z,14.97
2022-09-06T07:44:05.259Z,15.13
2022-09-06T07:46:32.064Z,15.12
2022-09-06T07:48:58.943Z,15.19
2022-09-06T07:51:25.685Z,15.30
2022-09-06T07:54:07.390Z,15.19
2022-09-06T07:56:42.802Z,15.15
2022-09-06T07:59:09.708Z,15.08
2022-09-06T08:01:38.400Z,15.11
2022-09-06T08:04:08.620Z,15.24
2022-09-06T08:09:25.183Z,15.44
2022-09-06T08:11:52.772Z,15.54
2022-09-06T08:14:20.323Z,15.54
2022-09-06T08:16:47.330Z,15.69
2022-09-06T08:19:14.169Z,15.78
2022-09-06T08:21:41.147Z,15.93
2022-09-06T08:24:12.419Z,16.13
2022-09-06T08:26:43.281Z,16.16
2022-09-06T08:29:11.567Z,16.36
2022-09-06T08:31:43.718Z,16.40
2022-09-06T08:34:14.321Z,16.47
2022-09-06T08:36:41.781Z,16.32
2022-09-06T08:39:10.113Z,16.35
2022-09-06T08:41:58.701Z,16.44
2022-09-06T08:44:55.367Z,16.51
2022-09-06T08:47:23.231Z,16.92
2022-09-06T08:50:04.175Z,17.32
2022-09-06T08:53:17.197Z,17.75
2022-09-06T08:56:32.565Z,17.89
2022-09-06T08:59:11.697Z,18.10
2022-09-06T09:02:10.145Z,18.00
2022-09-06T09:04:41.588Z,18.85
2022-09-06T09:07:35.709Z,19.55
2022-09-06T09:10:09.555Z,19.94
2022-09-06T09:12:44.043Z,19.90
2022-09-06T09:15:15.212Z,20.03
2022-09-06T09:17:45.069Z,19.88
2022-09-06T09:20:11.800Z,20.54
2022-09-06T09:22:39.912Z,21.35
2022-09-06T09:25:11.853Z,21.28
2022-09-06T09:27:39.718Z,21.72
2022-09-06T09:32:55.320Z,21.94
2022-09-06T09:35:33.983Z,22.53
2022-09-06T09:38:11.797Z,23.12
2022-09-06T09:40:50.177Z,22.44
2022-09-06T09:43:26.832Z,22.11
2022-09-06T09:46:17.524Z,22.60
2022-09-06T09:49:01.209Z,22.77
2022-09-06T09:51:28.962Z,22.95
2022-09-06T09:54:01.237Z,23.49
2022-09-06T09:56:51.599Z,24.09
2022-09-06T09:59:31.663Z,24.23
2022-09-06T10:02:16.230Z,24.91
2022-09-06T10:04:50.400Z,25.03
2022-09-06T10:07:20.829Z,24.73
2022-09-06T10:09:59.173Z,25.25
2022-09-06T10:12:31.377Z,25.13
2022-09-06T10:15:01.215Z,24.85
2022-09-06T10:17:47.484Z,24.94
2022-09-06T10:20:14.791Z,25.54
2022-09-06T10:22:46.747Z,25.30
2022-09-06T10:25:42.936Z,25.45
2022-09-06T10:28:26.954Z,24.56
2022-09-06T10:31:18.137Z,25.27
2022-09-06T10:34:10.023Z,25.19
2022-09-06T10:37:07.461Z,25.17
2022-09-06T10:40:03.016Z,25.20
2022-09-06T10:42:42.399Z,25.72
2022-09-06T10:45:21.812Z,25.82
2022-09-06T10:48:02.896Z,24.60
2022-09-06T10:50:46.771Z,25.42
2022-09-06T10:53:21.280Z,25.72
2022-09-06T10:55:52.914Z,25.29
2022-09-06T10:58:27.690Z,25.66
2022-09-06T11:00:55.278Z,25.39
2022-09-06T11:04:02.081Z,25.77
2022-09-06T11:06:34.874Z,25.62
2022-09-06T11:09:16.897Z,25.14
2022-09-06T11:12:12.441Z,25.24
2022-09-06T11:14:40.809Z,25.32
2022-09-06T11:17:13.992Z,24.40
2022-09-06T11:19:40.633Z,24.15
2022-09-06T11:22:22.953Z,23.71
2022-09-06T11:25:46.656Z,23.88
2022-09-06T11:28:18.765Z,23.64
2022-09-06T11:30:48.247Z,23.25
2022-09-06T11:33:26.657Z,23.21
2022-09-06T11:35:54.894Z,23.21
2022-09-06T11:38:26.131Z,22.77
2022-09-06T11:41:02.809Z,23.06
2022-09-06T11:43:49.143Z,23.21
2022-09-06T11:46:34.367Z,23.22
2022-09-06T11:49:16.549Z,23.34
2022-09-06T11:51:45.222Z,22.95
2022-09-06T11:54:15.283Z,23.71
2022-09-06T11:56:55.657Z,23.14
2022-09-06T11:59:34.138Z,22.99
2022-09-06T12:02:26.848Z,22.68
2022-09-06T12:05:16.781Z,22.09
2022-09-06T12:08:11.706Z,22.55
2022-09-06T12:11:02.188Z,22.72
2022-09-06T12:13:47.471Z,22.64
2022-09-06T12:16:16.410Z,22.72
2022-09-06T12:18:43.056Z,23.14
2022-09-06T12:21:31.187Z,23.12
2022-09-06T12:23:58.651Z,23.06
2022-09-06T12:26:53.205Z,22.78
2022-09-06T12:29:27.254Z,22.83
2022-09-06T12:31:57.306Z,22.49
2022-09-06T12:34:45.116Z,22.28
2022-09-06T12:37:12.084Z,22.51
2022-09-06T12:39:38.874Z,22.08
2022-09-06T12:42:10.716Z,22.35
2022-09-06T12:44:50.952Z,22.16
2022-09-06T12:47:30.858Z,22.23
2022-09-06T12:50:25.171Z,22.11
2022-09-06T12:52:59.314Z,22.11
2022-09-06T12:55:33.991Z,22.24
2022-09-06T12:58:04.146Z,22.03
2022-09-06T13:00:44.644Z,21.97
2022-09-06T13:03:24.162Z,22.11
2022-09-06T13:05:52.767Z,22.26
2022-09-06T13:08:35.529Z,22.79
2022-09-06T13:11:04.953Z,23.59
2022-09-06T13:13:31.860Z,24.05
2022-09-06T13:15:58.897Z,24.72
2022-09-06T13:18:37.410Z,25.10
2022-09-06T13:21:07.276Z,24.83
2022-09-06T13:23:48.747Z,25.18
2022-09-06T13:26:31.492Z,25.42
2022-09-06T13:29:29.127Z,25.15
2022-09-06T13:31:59.923Z,24.90
2022-09-06T13:34:32.536Z,24.75
2022-09-06T13:37:05.884Z,25.03
2022-09-06T13:39:33.883Z,24.87
2022-09-06T13:42:26.020Z,24.76
2022-09-06T13:44:53.196Z,25.01
2022-09-06T13:47:19.984Z,24.82
2022-09-06T13:49:47.249Z,24.92
2022-09-06T13:52:14.718Z,24.79
2022-09-06T13:54:41.655Z,24.35
2022-09-06T13:57:09.753Z,24.18
2022-09-06T13:59:37.059Z,24.36
2022-09-06T14:02:14.038Z,23.99
2022-09-06T14:04:40.910Z,23.46
2022-09-06T14:07:07.621Z,23.54
2022-09-06T14:09:34.440Z,22.83
2022-09-06T14:12:02.132Z,22.68
2022-09-06T14:14:29.821Z,22.58
2022-09-06T14:16:56.999Z,22.32
2022-09-06T14:19:23.800Z,22.25
2022-09-06T14:21:50.525Z,22.14
2022-09-06T14:24:17.822Z,22.34
2022-09-06T14:26:44.587Z,22.55
2022-09-06T14:29:11.902Z,22.78
2022-09-06T14:31:39.628Z,22.86
2022-09-06T14:34:06.957Z,22.86
2022-09-06T14:36:34.201Z,22.98
2022-09-06T14:39:02.078Z,23.14
2022-09-06T14:41:29.019Z,23.10
2022-09-06T14:43:57.720Z,22.90
2022-09-06T14:46:26.814Z,22.67
2022-09-06T14:49:08.344Z,22.65
2022-09-06T14:51:36.794Z,22.68
2022-09-06T14:54:08.062Z,22.52
2022-09-06T14:56:35.364Z,22.40
2022-09-06T14:59:02.179Z,22.16
2022-09-06T15:01:37.078Z,22.13
2022-09-06T15:04:07.183Z,21.78
2022-09-06T15:06:34.963Z,21.88
2022-09-06T15:09:01.790Z,21.76
2022-09-06T15:11:35.875Z,21.61
2022-09-06T15:14:04.323Z,21.48
2022-09-06T15:16:32.923Z,21.29
2022-09-06T15:19:00.479Z,21.10
2022-09-06T15:21:27.584Z,21.08
2022-09-06T15:23:54.627Z,21.02
2022-09-06T15:26:22.247Z,20.98
2022-09-06T15:28:49.646Z,20.95
2022-09-06T15:31:17.617Z,20.95
2022-09-06T15:33:44.639Z,21.00
2022-09-06T15:36:12.385Z,20.87
2022-09-06T15:38:43.226Z,20.94
2022-09-06T15:41:12.997Z,20.99
2022-09-06T15:43:42.953Z,20.88
2022-09-06T15:46:10.166Z,20.69
2022-09-06T15:48:45.479Z,20.90
2022-09-06T15:51:14.691Z,20.94
2022-09-06T15:53:41.628Z,20.78
2022-09-06T15:56:10.859Z,20.88
2022-09-06T15:58:37.631Z,20.75
2022-09-06T16:01:09.365Z,20.72
2022-09-06T16:03:47.318Z,20.73
2022-09-06T16:08:56.334Z,20.62
2022-09-06T16:11:23.335Z,20.65
2022-09-06T16:13:50.092Z,20.59
2022-09-06T16:16:17.488Z,20.59
2022-09-06T16:18:48.628Z,20.40
2022-09-06T16:21:15.378Z,20.63
2022-09-06T16:23:42.997Z,20.85
2022-09-06T16:26:10.229Z,20.86
2022-09-06T16:28:38.017Z,20.66
2022-09-06T16:31:08.523Z,20.64
2022-09-06T16:33:37.617Z,20.37
2022-09-06T16:36:07.065Z,20.17
2022-09-06T16:38:34.302Z,20.21
2022-09-06T16:41:14.489Z,20.12
2022-09-06T16:43:42.042Z,19.84
2022-09-06T16:46:10.162Z,20.10
2022-09-06T16:48:37.265Z,19.74
2022-09-06T16:51:18.183Z,19.59
2022-09-06T16:53:47.579Z,19.69
2022-09-06T16:56:17.884Z,19.35
2022-09-06T16:58:52.631Z,19.15
2022-09-06T17:01:20.616Z,19.25
2022-09-06T17:03:48.220Z,19.05
2022-09-06T17:06:15.142Z,18.99
2022-09-06T17:08:42.895Z,18.81
2022-09-06T17:11:14.764Z,18.95
2022-09-06T17:13:42.210Z,18.80
2022-09-06T17:16:28.106Z,18.83
2022-09-06T17:18:55.190Z,18.74
2022-09-06T17:21:23.603Z,18.64
2022-09-06T17:23:51.577Z,18.68
2022-09-06T17:26:22.365Z,18.69
2022-09-06T17:28:50.109Z,18.52
2022-09-06T17:31:22.186Z,18.54
2022-09-06T17:33:52.489Z,18.43
2022-09-06T17:36:25.107Z,18.35
2022-09-06T17:38:53.758Z,18.36
2022-09-06T17:41:27.429Z,18.22
2022-09-06T17:43:54.989Z,17.91
2022-09-06T17:46:28.486Z,17.93
2022-09-06T17:48:56.485Z,17.90
2022-09-06T17:51:24.700Z,17.74
2022-09-06T17:53:52.766Z,17.78
2022-09-06T17:56:20.746Z,17.63
2022-09-06T17:58:55.632Z,17.50
2022-09-06T18:01:24.099Z,17.50
2022-09-06T18:03:51.349Z,17.45
2022-09-06T18:06:20.479Z,17.37
2022-09-06T18:08:48.157Z,17.30
2022-09-06T18:11:17.979Z,17.28
2022-09-06T18:13:45.572Z,17.25
2022-09-06T18:16:14.121Z,17.15
2022-09-06T18:18:41.742Z,17.11
2022-09-06T18:21:08.545Z,17.17
2022-09-06T18:23:35.851Z,17.11
2022-09-06T18:26:05.766Z,17.01
2022-09-06T18:28:36.216Z,17.00
2022-09-06T18:31:08.714Z,16.92
2022-09-06T18:33:36.518Z,16.80
2022-09-06T18:36:04.864Z,16.87
2022-09-06T18:38:31.677Z,16.82
2022-09-06T18:41:00.952Z,16.85
2022-09-06T18:43:30.736Z,16.86
2022-09-06T18:46:08.824Z,16.77
2022-09-06T18:48:37.348Z,16.75
2022-09-06T18:51:11.457Z,16.88
2022-09-06T18:53:43.972Z,16.75
2022-09-06T18:56:13.354Z,16.65
2022-09-06T18:58:40.884Z,16.61
2022-09-06T19:01:14.973Z,16.52
2022-09-06T19:03:42.522Z,16.56
2022-09-06T19:06:15.406Z,16.54
2022-09-06T19:08:43.081Z,16.58
2022-09-06T19:11:12.585Z,16.55
2022-09-06T19:13:44.094Z,16.44
2022-09-06T19:16:12.417Z,16.39
2022-09-06T19:18:40.311Z,16.29
2022-09-06T19:21:16.712Z,16.32
2022-09-06T19:23:45.754Z,16.33
2022-09-06T19:26:16.989Z,16.25
2022-09-06T19:28:52.584Z,16.29
2022-09-06T19:31:19.696Z,16.25
2022-09-06T19:33:48.171Z,16.18
2022-09-06T19:36:15.617Z,16.16
2022-09-06T19:39:02.018Z,16.06
2022-09-06T19:41:30.687Z,16.06
2022-09-06T19:43:58.540Z,15.96
2022-09-06T19:46:26.682Z,16.02
2022-09-06T19:48:55.978Z,16.04
2022-09-06T19:51:24.169Z,15.98
2022-09-06T19:53:57.613Z,15.95
2022-09-06T19:56:30.015Z,15.95
2022-09-06T19:58:58.867Z,15.92
2022-09-06T20:01:29.228Z,15.88
2022-09-06T20:03:57.041Z,15.91
2022-09-06T20:06:24.442Z,15.86
2022-09-06T20:08:53.302Z,15.84
2022-09-06T20:11:21.922Z,15.78
2022-09-06T20:13:49.464Z,15.74
2022-09-06T20:16:18.541Z,15.83
2022-09-06T20:18:47.436Z,15.89
2022-09-06T20:21:14.938Z,15.82
2022-09-06T20:23:42.239Z,15.69
2022-09-06T20:26:11.515Z,15.77
2022-09-06T20:28:38.319Z,15.71
2022-09-06T20:31:18.485Z,15.67
2022-09-06T20:33:49.471Z,15.66
2022-09-06T20:36:17.292Z,15.66
2022-09-06T20:38:45.316Z,15.65
2022-09-06T20:41:20.445Z,15.62
2022-09-06T20:43:58.324Z,15.65
2022-09-06T20:46:30.334Z,15.62
2022-09-06T20:48:59.859Z,15.62
2022-09-06T20:51:26.745Z,15.58
2022-09-06T20:53:55.974Z,15.60
2022-09-06T20:56:31.913Z,15.53
2022-09-06T20:59:00.937Z,15.44
2022-09-06T21:01:30.740Z,15.44
2022-09-06T21:03:59.615Z,15.52
2022-09-06T21:06:29.098Z,15.42
2022-09-06T21:08:58.030Z,15.48
2022-09-06T21:11:24.865Z,15.29
2022-09-06T21:13:55.926Z,15.38
2022-09-06T21:16:28.253Z,15.38
2022-09-06T21:19:01.184Z,15.26
2022-09-06T21:21:30.146Z,15.23
2022-09-06T21:23:57.224Z,15.18
2022-09-06T21:26:23.997Z,15.26
2022-09-06T21:28:50.765Z,15.24
2022-09-06T21:31:23.097Z,15.21
2022-09-06T21:33:55.701Z,15.15
2022-09-06T21:36:29.366Z,15.17
2022-09-06T21:38:59.224Z,15.18
2022-09-06T21:41:27.275Z,15.15
2022-09-06T21:43:56.178Z,15.03
2022-09-06T21:46:27.922Z,15.07
2022-09-06T21:49:00.229Z,15.07
2022-09-06T21:51:27.409Z,15.03
2022-09-06T21:53:54.877Z,15.02
2022-09-06T21:56:23.870Z,14.92
2022-09-06T21:58:55.730Z,14.87
2022-09-06T22:01:23.960Z,14.85
2022-09-06T22:03:51.138Z,14.89
2022-09-06T22:06:29.413Z,14.89
2022-09-06T22:08:57.731Z,14.92
2022-09-06T22:11:28.371Z,14.84
2022-09-06T22:14:02.541Z,14.82
2022-09-06T22:16:31.102Z,14.81
2022-09-06T22:18:57.906Z,14.70
2022-09-06T22:21:25.168Z,14.81
2022-09-06T22:23:54.423Z,14.71
2022-09-06T22:26:22.150Z,14.70
2022-09-06T22:28:54.926Z,14.62
2022-09-06T22:31:22.514Z,14.70
2022-09-06T22:33:49.375Z,14.70
2022-09-06T22:36:16.850Z,14.64
2022-09-06T22:38:43.742Z,14.60
2022-09-06T22:41:10.963Z,14.54
2022-09-06T22:43:37.921Z,14.51
2022-09-06T22:46:09.926Z,14.62
2022-09-06T22:48:37.269Z,14.63
2022-09-06T22:51:06.035Z,14.56
2022-09-06T22:53:33.783Z,14.49
2022-09-06T22:56:01.384Z,14.45
2022-09-06T22:58:28.849Z,14.43
2022-09-06T23:00:56.655Z,14.39
2022-09-06T23:03:23.508Z,14.47
2022-09-06T23:05:50.329Z,14.37
2022-09-06T23:08:17.192Z,14.41
2022-09-06T23:10:44.382Z,14.53
2022-09-06T23:13:11.558Z,14.38
2022-09-06T23:15:41.062Z,14.44
2022-09-06T23:18:08.374Z,14.49
2022-09-06T23:20:39.578Z,14.48
2022-09-06T23:23:08.277Z,14.36
2022-09-06T23:25:39.240Z,14.29
2022-09-06T23:28:06.875Z,14.33
2022-09-06T23:30:37.592Z,14.23
2022-09-06T23:33:05.217Z,14.32
2022-09-06T23:35:32.118Z,14.28
2022-09-06T23:37:58.943Z,14.30
2022-09-06T23:40:25.848Z,14.28
2022-09-06T23:42:52.739Z,14.28
2022-09-06T23:45:19.447Z,14.27
2022-09-06T23:47:46.250Z,14.26
2022-09-06T23:50:13.031Z,14.27
2022-09-06T23:52:39.783Z,14.23
2022-09-06T23:55:09.335Z,14.25
2022-09-06T23:57:36.132Z,14.29
